This is the latest recevied weather packets stored in our database for station/object K7VLL. If no packets are shown the sender has not sent any weather packets the latest 10 day(s).
| Time | Temp. | Humidity | Pressure | Rain* | Wind** | Luminosity | Snow |
|---|---|---|---|---|---|---|---|
| 1777925972 | 27.78° C | 17% | 1089.4 hPa | 0 mm | - | 245 W/m² | - |
| 1777924170 | 27.22° C | 19% | 1089.7 hPa | 0 mm | - | 270 W/m² | - |
| 1777922366 | 26.67° C | 18% | 1089.3 hPa | 0 mm | - | 284 W/m² | - |
| 1777920561 | 27.22° C | 19% | 1089.4 hPa | 0 mm | - | 310 W/m² | - |
| 1777918760 | 26.67° C | 19% | 1089.9 hPa | 0 mm | - | 357 W/m² | - |
| 1777916958 | 26.11° C | 20% | 1089.9 hPa | 0 mm | - | 307 W/m² | - |
| 1777915156 | 26.11° C | 22% | 1090.1 hPa | 0 mm | - | 271 W/m² | - |
| 1777913354 | 26.11° C | 23% | 1090.1 hPa | 0 mm | - | 285 W/m² | - |
| 1777911550 | 25° C | 24% | 1089.7 hPa | 0 mm | - | 271 W/m² | - |
| 1777909749 | 25° C | 26% | 1090 hPa | 0 mm | - | 176 W/m² | - |
| 1777907949 | 23.89° C | 28% | 1089.9 hPa | 0 mm | - | 141 W/m² | - |
| 1777906145 | 23.33° C | 29% | 1089.7 hPa | 0 mm | - | 144 W/m² | - |
| 1777904345 | 22.22° C | 32% | 1089.6 hPa | 0 mm | - | 92 W/m² | - |
| 1777902542 | 21.67° C | 35% | 1089.7 hPa | 0 mm | - | 28 W/m² | - |
| 1777900738 | 21.67° C | 33% | 1089.7 hPa | 0 mm | - | 33 W/m² | - |
| 1777898938 | 20.56° C | 33% | 1089.1 hPa | 0 mm | - | 5 W/m² | - |
| 1777897135 | 20° C | 33% | 1088.8 hPa | 0 mm | - | 0 W/m² | - |
| 1777895330 | 20° C | 32% | 1088.7 hPa | 0 mm | - | 0 W/m² | - |
| 1777893530 | 21.67° C | 29% | 1088.6 hPa | 0 mm | - | 0 W/m² | - |
| 1777891727 | 22.22° C | 28% | 1088.5 hPa | 0 mm | - | 0 W/m² | - |
| 1777889925 | 22.22° C | 28% | 1088.6 hPa | 0 mm | - | 0 W/m² | - |
| 1777888124 | 22.78° C | 27% | 1088.3 hPa | 0 mm | - | 0 W/m² | - |
| 1777886321 | 22.22° C | 28% | 1087.8 hPa | 0 mm | - | 0 W/m² | - |
| 1777884518 | 22.78° C | 29% | 1088 hPa | 0 mm | - | 0 W/m² | - |
| 1777882715 | 22.78° C | 28% | 1088.1 hPa | 0 mm | - | 0 W/m² | - |
* Rain latest hour (hover to see other rain measurements)
** Current wind speed in m/s (hover to see current wind gust speed)